Latest Weather Observations for Fowlers Gap

IDN60801

Issued at 2:43 pm EDT Tuesday 18 January 2022 (issued every 10 minutes, with the page automatically refreshed every 10 minutes)

About weather observations | Map of weather stations | Latest weather observations for NSW | Other Formats
Station Details ID: 046128 Name: FOWLERS GAP AWS Lat: -31.09 Lon: 141.70 Height: 181.0 m
Data from the previous 72 hours. | See also: Recent months at Fowlers Gap
Date/Time
EDT
Temp
°C
App
Temp
°C
Dew
Point
°C
Rel
Hum
%
Delta-T
°C
Wind Press
QNH
hPa
Press
MSL
hPa
Rain since
9am
mm
Dir  Spd
km/h
Gust
km/h
Spd
kts
Gust
kts
18/02:30pm 21.9 18.7 16.2 70 3.5 SSE 28 35 15 19 1011.6 1010.4 0.0
18/02:00pm 21.9 18.1 15.7 68 3.7 SE 30 43 16 23 1011.4 1010.2 0.0
18/01:30pm 21.9 18.1 15.7 68 3.7 SE 30 39 16 21 1012.0 1010.8 0.0
18/01:00pm 21.4 17.4 15.3 68 3.7 SE 30 41 16 22 1012.2 1011.0 0.0
18/12:30pm 21.2 17.2 15.3 69 3.5 SE 30 35 16 19 1012.7 1011.5 0.0
18/12:00pm 20.5 16.8 15.1 71 3.2 SSE 28 37 15 20 1012.8 1011.6 0.0
18/11:30am 19.9 15.4 14.9 73 3.0 SSE 32 41 17 22 1012.8 1011.6 0.0
18/11:00am 20.3 17.3 14.9 71 3.2 SSE 24 32 13 17 1013.1 1011.9 0.0
18/10:30am 20.0 15.2 14.6 71 3.2 SSE 33 43 18 23 1012.8 1011.6 0.0
18/10:00am 20.2 15.3 15.2 73 3.0 SSE 35 48 19 26 1012.0 1010.8 0.0
18/09:30am 20.4 15.8 15.2 72 3.1 SSE 33 48 18 26 1012.2 1011.0 0.0
18/09:00am 20.3 15.9 15.1 72 3.1 SSE 32 46 17 25 1012.1 1010.9 0.0
18/08:30am 20.4 16.2 15.8 75 2.8 SSE 32 41 17 22 1011.7 1010.5 0.0
18/08:00am 20.2 17.0 16.2 78 2.4 SSE 28 35 15 19 1011.2 1010.0 0.0
18/07:30am 20.2 17.6 16.8 81 2.1 SSE 26 35 14 19 1011.0 1009.8 0.0
18/07:00am 20.9 19.3 17.5 81 2.1 SSE 22 33 12 18 1011.1 1009.9 0.0
18/06:30am 21.1 19.1 17.5 80 2.2 SSE 24 33 13 18 1010.7 1009.5 0.0
18/06:00am 21.3 20.4 17.7 80 2.2 SE 19 24 10 13 1010.2 1008.9 0.0
18/05:30am 21.0 20.0 18.0 83 1.9 SE 20 26 11 14 1010.0 1008.7 0.0
18/05:00am 21.4 21.3 17.8 80 2.2 SE 15 20 8 11 1010.9 1009.7 0.0
18/04:30am 22.2 20.8 16.5 70 3.5 SE 19 24 10 13 1009.9 1008.6 0.0
18/04:00am 22.4 19.9 16.2 68 3.8 SE 24 32 13 17 1009.3 1008.0 0.0
18/03:30am 22.7 20.5 16.0 66 4.1 SE 22 30 12 16 1009.6 1008.3 0.0
18/03:00am 23.0 21.3 15.8 64 4.4 SE 19 30 10 16 1009.7 1008.4 0.0
18/02:30am 23.0 21.6 15.6 63 4.5 SSE 17 28 9 15 1009.9 1008.6 0.0
18/02:00am 23.3 21.8 15.4 61 4.8 SSE 17 24 9 13 1010.0 1008.7 0.0
18/01:30am 23.2 21.4 15.5 62 4.7 SE 19 26 10 14 1010.1 1008.8 0.0
18/01:00am 23.1 20.8 15.7 63 4.5 SE 22 32 12 17 1010.2 1008.9 0.0
18/12:30am 23.2 20.6 15.8 63 4.5 SE 24 32 13 17 1010.7 1009.5 0.0
18/12:00am 23.9 20.4 15.4 59 5.2 ESE 28 39 15 21 1011.3 1010.1 0.0
 
Date/Time
EDT
Temp
°C
App
Temp
°C
Dew
Point
°C
Rel
Hum
%
Delta-T
°C
Wind Press
QNH
hPa
Press
MSL
hPa
Rain since
9am
mm
Dir  Spd
km/h
Gust
km/h
Spd
kts
Gust
kts
17/11:30pm 24.6 20.7 14.4 53 6.1 SE 28 35 15 19 1011.2 1010.0 0.0
17/11:00pm 25.3 21.9 13.8 49 6.8 SE 24 32 13 17 1011.7 1010.5 0.0
17/10:30pm 25.3 21.9 13.8 49 6.8 SE 24 33 13 18 1011.4 1010.2 0.0
17/10:00pm 25.7 21.6 13.9 48 7.0 SE 28 39 15 21 1011.1 1009.9 0.0
17/09:30pm 26.3 22.7 13.1 44 7.8 SSE 24 33 13 18 1011.0 1009.8 0.0
17/09:00pm 26.7 21.8 12.7 42 8.2 SSE 30 37 16 20 1010.8 1009.6 0.0
17/08:30pm 27.2 22.5 12.0 38 8.8 SE 28 35 15 19 1010.7 1009.5 0.0
17/08:00pm 27.5 22.1 12.3 39 8.9 SSE 32 39 17 21 1010.6 1009.4 0.0
17/07:30pm 28.1 23.0 12.0 36 9.4 SSE 30 41 16 22 1010.2 1008.9 0.0
17/07:00pm 28.8 23.4 12.2 35 9.8 SSE 32 39 17 21 1009.9 1008.6 0.0
17/06:30pm 29.2 23.6 12.2 35 10.0 S 33 41 18 22 1009.8 1008.5 0.0
17/06:00pm 29.8 24.4 12.3 34 10.3 S 32 39 17 21 1009.8 1008.5 0.0
17/05:30pm 31.1 25.8 12.5 32 11.1 S 32 43 17 23 1009.5 1008.2 0.0
17/05:00pm 31.9 27.4 12.7 31 11.5 SSE 28 43 15 23 1009.5 1008.2 0.0
17/04:30pm 32.6 27.6 12.3 29 12.1 SSE 30 39 16 21 1009.3 1008.0 0.0
17/04:00pm 32.8 27.5 12.4 29 12.2 SSE 32 39 17 21 1009.1 1007.9 0.0
17/03:30pm 32.8 27.5 12.4 29 12.2 SSE 32 43 17 23 1009.0 1007.8 0.0
17/03:00pm 32.6 27.2 12.3 29 12.1 S 32 43 17 23 1009.0 1007.8 0.0
17/02:30pm 33.5 28.6 12.5 28 12.6 SSE 30 39 16 21 1008.9 1007.7 0.0
17/02:00pm 31.9 27.3 12.2 30 11.7 SSE 28 37 15 20 1009.3 1008.0 0.0
17/01:30pm 32.1 26.7 12.3 29 11.8 SSE 32 41 17 22 1009.4 1008.1 0.0
17/01:00pm 32.9 28.4 12.5 29 12.3 SSE 28 39 15 21 1009.5 1008.2 0.0
17/12:30pm 32.6 28.0 12.3 29 12.1 SE 28 39 15 21 1009.6 1008.3 0.0
17/12:00pm 31.5 26.7 11.8 30 11.6 SSE 28 35 15 19 1009.7 1008.4 0.0
17/11:30am 29.8 25.0 11.8 33 10.5 SE 28 35 15 19 1009.8 1008.5 0.0
17/11:00am 29.5 25.0 11.5 32 10.5 SSE 26 33 14 18 1010.0 1008.7 0.0
17/10:30am 28.9 23.7 11.5 34 10.1 SE 30 39 16 21 1009.8 1008.5 0.0
17/10:00am 28.8 24.0 11.8 35 9.9 SSE 28 37 15 20 1009.7 1008.4 0.0
17/09:30am 28.5 24.4 11.6 35 9.8 SE 24 33 13 18 1010.4 1009.1 0.0
17/09:00am 28.3 25.1 11.8 36 9.6 SSE 20 26 11 14 1010.8 1009.6 0.0
17/08:30am 28.6 25.1 12.1 36 9.7 SSE 22 32 12 17 1011.1 1009.9 0.0
17/08:00am 28.8 24.0 11.8 35 9.9 SSE 28 35 15 19 1010.0 1008.7 0.0
17/07:30am 29.1 26.3 11.2 33 10.4 SSE 17 26 9 14 1009.7 1008.4 0.0
17/07:00am 29.2 25.4 11.3 33 10.4 SE 22 30 12 16 1008.4 1007.2 0.0
17/06:30am 29.5 25.2 10.6 31 10.8 SSE 24 30 13 16 1008.3 1007.1 0.0
17/06:00am 29.5 23.5 10.1 30 11.1 SSE 32 41 17 22 1006.7 1005.5 0.0
17/05:30am 29.9 23.8 10.5 30 11.1 S 33 43 18 23 1007.4 1006.2 0.0
17/05:00am 30.3 26.6 10.3 29 11.5 SSW 20 32 11 17 1008.7 1007.5 0.0
17/04:30am 30.4 24.9 10.4 29 11.5 SSE 30 39 16 21 1006.8 1005.6 0.0
17/04:00am 30.7 24.8 10.6 29 11.6 SSE 32 43 17 23 1006.5 1005.3 0.0
17/03:30am 31.2 25.3 11.1 29 11.7 S 33 43 18 23 1006.8 1005.6 0.0
17/03:00am 31.9 25.2 11.1 28 12.2 S 37 50 20 27 1006.6 1005.4 0.0
17/02:30am 32.4 27.0 11.0 27 12.5 SSE 30 37 16 20 1006.3 1005.1 0.0
17/02:00am 32.9 27.5 10.9 26 12.9 SSE 30 39 16 21 1006.2 1005.0 0.0
17/01:30am 33.4 27.9 10.7 25 13.3 SSE 30 37 16 20 1006.1 1004.9 0.0
17/01:00am 34.4 29.0 9.6 22 14.4 SSE 28 41 15 22 1006.0 1004.8 0.0
17/12:30am 34.7 27.9 9.2 21 14.7 SE 35 54 19 29 1005.9 1004.7 0.0
17/12:06am 35.2 28.3 8.9 20 15.1 SSE 35 54 19 29 1006.0 1004.8 0.0
17/12:00am 35.3 28.2 8.2 19 15.4 SSE 35 46 19 25 1006.0 1004.8 0.0
 
Date/Time
EDT
Temp
°C
App
Temp
°C
Dew
Point
°C
Rel
Hum
%
Delta-T
°C
Wind Press
QNH
hPa
Press
MSL
hPa
Rain since
9am
mm
Dir  Spd
km/h
Gust
km/h
Spd
kts
Gust
kts
16/11:30pm 36.2 29.5 7.3 17 16.2 S 32 43 17 23 1006.8 1005.6 0.0
16/11:00pm 36.5 29.1 6.6 16 16.7 SSW 35 46 19 25 1005.7 1004.5 0.0
16/10:30pm 37.4 30.5 6.4 15 17.3 S 32 41 17 22 1005.5 1004.2 0.0
16/10:05pm 37.9 31.2 5.8 14 17.8 SSW 30 48 16 26 1005.1 1003.8 0.0
16/10:00pm 38.1 32.2 6.0 14 17.9 SSW 26 33 14 18 1005.0 1003.7 0.0
16/09:30pm 38.8 32.1 5.4 13 18.5 SW 30 37 16 20 1004.4 1003.1 0.0
16/09:21pm 38.9 34.3 5.5 13 18.5 W 19 37 10 20 1004.4 1003.1 0.0
16/09:00pm 39.3 36.0 4.7 12 19.0 WNW 11 15 6 8 1004.2 1002.9 0.0
16/08:30pm 39.8 36.6 5.1 12 19.2 NNE 11 20 6 11 1003.6 1002.3 0.0
16/08:00pm 40.1 37.1 4.0 11 19.7 N 9 11 5 6 1002.9 1001.7 0.0
16/07:30pm 40.3 36.9 4.2 11 19.8 ENE 11 15 6 8 1002.6 1001.4 0.0
16/07:00pm 40.7 37.5 3.1 10 20.4 NE 9 15 5 8 1002.4 1001.2 0.0
16/06:30pm 40.8 37.2 3.2 10 20.3 N 11 15 6 8 1002.2 1001.0 0.0
16/06:00pm 41.1 37.2 3.4 10 20.5 N 13 24 7 13 1002.4 1001.2 0.0
16/05:30pm 41.6 37.0 3.8 10 20.7 NE 17 28 9 15 1002.5 1001.3 0.0
16/05:00pm 41.7 38.3 3.9 10 20.8 NNW 11 28 6 15 1002.8 1001.6 0.0
16/04:30pm 41.9 37.0 4.0 10 20.8 NNE 19 26 10 14 1003.1 1001.9 0.0
16/04:00pm 42.6 38.3 3.1 9 21.6 NW 15 20 8 11 1003.5 1002.2 0.0
16/03:30pm 41.4 36.8 3.7 10 20.6 NNW 17 32 9 17 1003.7 1002.4 0.0
16/03:00pm 40.6 35.5 3.1 10 20.3 NNW 19 30 10 16 1004.0 1002.7 0.0
16/02:30pm 40.5 36.0 4.3 11 19.9 NNE 17 28 9 15 1004.5 1003.2 0.0
16/02:00pm 39.9 34.8 3.9 11 19.6 N 20 35 11 19 1004.9 1003.6 0.0
16/01:30pm 41.1 35.8 4.8 11 20.1 NNE 22 61 12 33 1005.1 1003.8 0.0
16/01:29pm 40.9 35.1 4.6 11 20.0 NNE 24 61 13 33 1005.1 1003.8 0.0
16/01:00pm 39.7 33.3 5.0 12 19.2 NNE 28 39 15 21 1005.5 1004.2 0.0
16/12:30pm 39.0 32.8 4.4 12 18.9 NE 26 37 14 20 1005.7 1004.5 0.0
16/12:00pm 38.1 31.6 4.9 13 18.2 NE 28 39 15 21 1006.0 1004.8 0.0
16/11:30am 36.9 30.1 5.0 14 17.4 NE 30 37 16 20 1006.3 1005.1 0.0
16/11:00am 36.9 31.6 7.0 16 16.8 NE 24 35 13 19 1006.6 1005.4 0.0
16/10:30am 34.1 28.7 6.4 18 15.2 NE 24 33 13 18 1006.9 1005.7 0.0
16/10:00am 33.0 28.7 7.8 21 14.1 NE 20 26 11 14 1007.0 1005.8 0.0
16/09:30am 31.4 27.3 7.8 23 13.1 ENE 19 22 10 12 1007.2 1006.0 0.0
16/09:00am 30.4 26.6 7.6 24 12.5 NE 17 24 9 13 1007.1 1005.9 0.0
16/08:30am 29.1 26.6 8.2 27 11.5 ENE 11 15 6 8 1006.9 1005.7 0.0
16/08:00am 28.8 26.6 7.9 27 11.5 ENE 9 13 5 7 1006.4 1005.2 0.0
16/07:30am 27.1 24.9 8.0 30 10.4 E 9 13 5 7 1006.2 1005.0 0.0
16/07:00am 25.6 23.4 7.7 32 9.6 ENE 9 11 5 6 1006.0 1004.8 0.0
16/06:30am 26.0 23.8 8.0 32 9.7 E 9 11 5 6 1005.8 1004.6 0.0
16/06:00am 25.4 23.2 8.0 33 9.4 E 9 11 5 6 1005.7 1004.5 0.0
16/05:30am 26.2 24.1 8.2 32 9.8 ENE 9 11 5 6 1005.5 1004.2 0.0
16/05:00am 26.2 24.1 8.2 32 9.8 ENE 9 11 5 6 1005.0 1003.7 0.0
16/04:30am 26.2 24.1 8.2 32 9.8 E 9 11 5 6 1004.8 1003.5 0.0
16/04:00am 26.6 24.5 8.1 31 10.1 ENE 9 11 5 6 1004.9 1003.6 0.0
16/03:30am 27.2 25.1 8.1 30 10.4 ENE 9 11 5 6 1004.8 1003.5 0.0
16/03:00am 27.2 25.2 8.6 31 10.2 ENE 9 11 5 6 1005.1 1003.8 0.0
16/02:30am 28.0 25.9 8.3 29 10.8 ENE 9 11 5 6 1005.5 1004.2 0.0
16/02:00am 29.1 26.2 8.2 27 11.5 E 13 17 7 9 1005.5 1004.2 0.0
16/01:30am 29.3 26.8 8.4 27 11.6 E 11 17 6 9 1005.8 1004.6 0.0
16/01:00am 29.9 26.7 8.3 26 12.0 E 15 24 8 13 1005.9 1004.7 0.0
16/12:30am 30.4 26.8 8.2 25 12.3 E 17 24 9 13 1005.7 1004.5 0.0
16/12:00am 31.0 26.8 8.1 24 12.7 ESE 20 30 11 16 1005.9 1004.7 0.0
 
Date/Time
EDT
Temp
°C
App
Temp
°C
Dew
Point
°C
Rel
Hum
%
Delta-T
°C
Wind Press
QNH
hPa
Press
MSL
hPa
Rain since
9am
mm
Dir  Spd
km/h
Gust
km/h
Spd
kts
Gust
kts
15/11:30pm 32.2 27.7 7.1 21 13.8 ESE 20 32 11 17 1005.9 1004.7 0.0
15/11:00pm 32.5 28.3 7.4 21 13.9 ESE 19 26 10 14 1005.9 1004.7 0.0
15/10:30pm 32.8 28.3 6.9 20 14.2 SE 20 24 11 13 1005.4 1004.1 0.0
15/10:00pm 33.3 29.1 7.3 20 14.5 ESE 19 22 10 12 1005.5 1004.2 0.0
15/09:30pm 33.8 29.5 7.0 19 14.8 ESE 19 22 10 12 1006.0 1004.8 0.0
15/09:00pm 34.5 30.5 6.7 18 15.4 ESE 17 24 9 13 1005.6 1004.4 0.0
15/08:30pm 35.3 31.3 6.6 17 15.9 ESE 17 22 9 12 1005.2 1003.9 0.0
15/08:17pm 35.5 30.9 5.8 16 16.3 ESE 19 24 10 13 1004.5 1003.2 0.0
15/08:00pm 35.9 31.8 6.2 16 16.5 SE 17 24 9 13 1002.4 1001.2 0.0
15/07:57pm 36.1 32.0 6.3 16 16.5 SE 17 24 9 13 1002.6 1001.4 0.0
15/07:30pm 36.9 32.2 6.0 15 17.1 SE 20 30 11 16 1004.7 1003.4 0.0
15/07:18pm 36.9 32.4 6.0 15 17.1 SE 19 26 10 14 1006.0 1004.8 0.0
15/07:00pm 37.4 33.7 6.4 15 17.3 ESE 15 28 8 15 1003.9 1002.6 0.0
15/06:30pm 36.8 33.0 5.9 15 17.0 SE 15 26 8 14 1003.7 1002.4 0.0
15/06:00pm 38.2 35.0 7.0 15 17.7 SSW 13 22 7 12 1003.8 1002.5 0.0
15/05:30pm 37.2 33.5 6.3 15 17.2 ENE 15 20 8 11 1004.2 1002.9 0.0
15/05:00pm 37.3 33.8 7.3 16 17.0 ESE 15 20 8 11 1004.2 1002.9 0.0
15/04:30pm 36.7 34.8 7.7 17 16.4 NW 7 15 4 8 1004.5 1003.2 0.0
15/04:00pm 36.7 33.3 7.7 17 16.5 S 15 24 8 13 1004.7 1003.4 0.0
15/03:30pm 36.0 32.3 8.0 18 15.9 SSW 17 26 9 14 1005.0 1003.7 0.0
15/03:00pm 35.1 31.6 8.8 20 15.1 SSE 17 28 9 15 1005.4 1004.1 0.0

Other formats

Comma delimited format used in spreadsheet applications
http://www.bom.gov.au/fwo/IDN60801/IDN60801.94686.axf

JavaScript Object Notation format (JSON) in row-major order
http://www.bom.gov.au/fwo/IDN60801/IDN60801.94686.json

Data quality

Most of these data are generated automatically and are frequently updated. Quality checks on data are not normally performed. It is possible for incorrect values to appear. Refer to information at About Latest Weather Observations and please check the disclaimer before using these data.